Un Akdeniz — TCTD2 — position and weather

sailwx.info

Track history (hours):
 
Tides and Currents Weather Stations Pressure Air Temp Water Temp Dewpoint Dewpoint Depression Visibility Wind Speed Wind Dir Waves Ship Positions

Un Akdeniz

Last reported at 2015-Jul-01 12:33 UTC. Time now 2015-Jul-01 12:50 UTC.
Position N 42°51' E 006°08'.

Length 192 m; draft 6.5 m.

Type: Ship (hazmat cat A). MMSI: 271002572.

Date/timePositionNaut miles runAvg speedWind from/ knotsBaromVisibWave heightAir tempDewpointWater temp
2015-Jul-01 12:33N 42°51' E 006°08'2020.2
2015-Jul-01 11:33N 42°39' E 006°30'2020.1
2015-Jul-01 10:33N 42°27' E 006°52'2120.4
2015-Jul-01 09:33N 42°15' E 007°15'2020.2
2015-Jul-01 08:33N 42°03' E 007°36'2020.2
2015-Jul-01 07:33N 41°51' E 007°58'2019.9
2015-Jul-01 06:33N 41°39' E 008°20'2320.0
2015-Jul-01 05:23N 41°25' E 008°45'3318.0
2015-Jul-01 03:33N 41°22' E 009°29'2419.5
2015-Jul-01 02:21N 41°10' E 009°56'1519.3
2015-Jul-01 01:34N 41°02' E 010°13'2019.6
2015-Jul-01 00:33N 40°52' E 010°35'2419.8
2015-Jun-30 23:20N 40°40' E 011°03'1519.8
2015-Jun-30 22:34N 40°32' E 011°20'2719.8
2015-Jun-30 21:13N 40°18' E 011°50'1719.9
2015-Jun-30 20:22N 40°09' E 012°09'1619.9
2015-Jun-30 19:33N 40°00' E 012°27'2019.9
2015-Jun-30 18:33N 39°50' E 012°48'2019.9
2015-Jun-30 17:33N 39°40' E 013°11'2219.8
2015-Jun-30 16:27N 39°28' E 013°35'3919.8
2015-Jun-30 14:28N 39°08' E 014°18'1919.9
2015-Jun-30 13:31N 38°59' E 014°39'1919.4
2015-Jun-30 12:31N 38°49' E 015°00'1919.4
2015-Jun-30 11:33N 38°37' E 015°19'1919.3
2015-Jun-30 10:33N 38°23' E 015°37'1212.5
2015-Jun-30 09:33N 38°11' E 015°37'1717.0
2015-Jun-30 08:33N 37°54' E 015°40'62916.0
2015-Jun-28 17:21N 40°53' E 028°40'1519.0
2015-Jun-28 16:33N 40°49' E 028°59'1312.9
2015-Jun-28 15:33N 40°51' E 029°16'0 0.0
2015-Jun-28 14:33N 40°51' E 029°16'0 0.0
2015-Jun-28 13:33N 40°51' E 029°16'0 0.0
2015-Jun-28 12:33N 40°51' E 029°16'0 0.0
2015-Jun-28 11:33N 40°51' E 029°16'0 0.0
2015-Jun-28 10:33N 40°51' E 029°16'0 0.0
2015-Jun-28 09:33N 40°51' E 029°16'0 0.0
2015-Jun-28 08:33N 40°51' E 029°16'0 0.0
2015-Jun-28 07:32N 40°51' E 029°16'0 0.1
2015-Jun-28 06:33N 40°51' E 029°16'9 9.1
2015-Jun-28 05:33N 40°48' E 029°05'1212.0
2015-Jun-28 04:33N 40°46' E 028°49'1412.1
2015-Jun-28 03:21N 40°46' E 028°30'26515.7
2015-Jun-27 10:30N 37°40' E 024°28'  
2015-Jun-22 16:16N 37°29' E 024°02'1920.2
2015-Jun-22 15:21N 37°43' E 024°17'  
Track history (hours):
 
Tides and Currents Weather Stations Pressure Air Temp Water Temp Dewpoint Dewpoint Depression Visibility Wind Speed Wind Dir Waves Ship Positions

Un Akdeniz

Last reported at 2015-Jul-01 12:33 UTC. Time now 2015-Jul-01 12:50 UTC.
Position N 42°51' E 006°08'.

Length 192 m; draft 6.5 m.

Type: Ship (hazmat cat A). MMSI: 271002572.

Date/timePositionNaut miles runAvg speedWind from/ knotsBaromVisibWave heightAir tempDewpointWater temp
2015-Jul-01 12:33N 42°51' E 006°08'2020.2
2015-Jul-01 11:33N 42°39' E 006°30'2020.1
2015-Jul-01 10:33N 42°27' E 006°52'2120.4
2015-Jul-01 09:33N 42°15' E 007°15'2020.2
2015-Jul-01 08:33N 42°03' E 007°36'2020.2
2015-Jul-01 07:33N 41°51' E 007°58'2019.9
2015-Jul-01 06:33N 41°39' E 008°20'2320.0
2015-Jul-01 05:23N 41°25' E 008°45'3318.0
2015-Jul-01 03:33N 41°22' E 009°29'2419.5
2015-Jul-01 02:21N 41°10' E 009°56'1519.3
2015-Jul-01 01:34N 41°02' E 010°13'2019.6
2015-Jul-01 00:33N 40°52' E 010°35'2419.8
2015-Jun-30 23:20N 40°40' E 011°03'1519.8
2015-Jun-30 22:34N 40°32' E 011°20'2719.8
2015-Jun-30 21:13N 40°18' E 011°50'1719.9
2015-Jun-30 20:22N 40°09' E 012°09'1619.9
2015-Jun-30 19:33N 40°00' E 012°27'2019.9
2015-Jun-30 18:33N 39°50' E 012°48'2019.9
2015-Jun-30 17:33N 39°40' E 013°11'2219.8
2015-Jun-30 16:27N 39°28' E 013°35'3919.8
2015-Jun-30 14:28N 39°08' E 014°18'1919.9
2015-Jun-30 13:31N 38°59' E 014°39'1919.4
2015-Jun-30 12:31N 38°49' E 015°00'1919.4
2015-Jun-30 11:33N 38°37' E 015°19'1919.3
2015-Jun-30 10:33N 38°23' E 015°37'1212.5
2015-Jun-30 09:33N 38°11' E 015°37'1717.0
2015-Jun-30 08:33N 37°54' E 015°40'62916.0
2015-Jun-28 17:21N 40°53' E 028°40'1519.0
2015-Jun-28 16:33N 40°49' E 028°59'1312.9
2015-Jun-28 15:33N 40°51' E 029°16'0 0.0
2015-Jun-28 14:33N 40°51' E 029°16'0 0.0
2015-Jun-28 13:33N 40°51' E 029°16'0 0.0
2015-Jun-28 12:33N 40°51' E 029°16'0 0.0
2015-Jun-28 11:33N 40°51' E 029°16'0 0.0
2015-Jun-28 10:33N 40°51' E 029°16'0 0.0
2015-Jun-28 09:33N 40°51' E 029°16'0 0.0
2015-Jun-28 08:33N 40°51' E 029°16'0 0.0
2015-Jun-28 07:32N 40°51' E 029°16'0 0.1
2015-Jun-28 06:33N 40°51' E 029°16'9 9.1
2015-Jun-28 05:33N 40°48' E 029°05'1212.0
2015-Jun-28 04:33N 40°46' E 028°49'1412.1
2015-Jun-28 03:21N 40°46' E 028°30'26515.7
2015-Jun-27 10:30N 37°40' E 024°28'  
2015-Jun-22 16:16N 37°29' E 024°02'1920.2
2015-Jun-22 15:21N 37°43' E 024°17'  

Dump ship's entire track history